• Join FlightAware (Why Join?)
  • Login
  • US Flag 
08:05AM EDT


 

Airport Tracker/Info


-or-


 

Live Flight TrackerFlight Track Log ✈ C-FTNM ✈ 18-Jun-2013 ✈ CJC5 - CYBW

Flight Track Log - Related Links

Times and Time Zones

All times are in EDT time to prevent confusion due to time zone crossing. See the C-FTNM flight status page for this flight to view local times or setup timezone preferences in your user account.

Time Position Orientation Groundspeed Altitude Reporting Facility
EDT Latitude Longitude Course Direction KTS MPH feet Rate Location/Type
10:08AM 49.6833 -108.5500 270° West 160 184 9,900  Level Edmonton Center
10:09AM 49.6833 -108.6333 270° West 170 196 11,300 1,440 Climbing Edmonton Center
10:10AM 49.6833 -108.7167 270° West 160 184 12,800 1,500 Climbing Edmonton Center
10:11AM 49.7000 -108.7667 297° West 160 184 14,400 1,500 Climbing Edmonton Center
10:12AM 49.7000 -108.8500 270° West 150 173 15,800 1,440 Climbing Edmonton Center
10:13AM 49.7167 -108.9000 297° West 160 184 17,300 1,500 Climbing Edmonton Center
10:14AM 49.7167 -108.9833 270° West 160 184 18,800 1,500 Climbing Edmonton Center
10:15AM 49.7333 -109.0333 297° West 160 184 20,300 1,500 Climbing Edmonton Center
10:16AM 49.7500 -109.1167 287° West 160 184 21,800 840 Climbing Edmonton Center
10:17AM 49.7333 -109.1833 249° West 170 196 22,000 60 Climbing Edmonton Center
10:18AM 49.7500 -109.2667 287° West 200 230 22,000  Level Edmonton Center
10:19AM 49.7667 -109.3667 285° West 220 253 22,000  Level Edmonton Center
10:20AM 49.7833 -109.4500 287° West 220 253 22,000  Level Edmonton Center
10:21AM 49.8000 -109.5500 285° West 220 253 22,000  Level Edmonton Center
10:22AM 49.8000 -109.6333 270° West 220 253 22,000  Level Edmonton Center
10:23AM 49.8167 -109.7500 283° West 220 253 22,000 -60 Level Edmonton Center
10:24AM 49.8333 -109.8167 291° West 220 253 21,900 -600 Descending Edmonton Center
10:25AM 49.8500 -109.9333 283° West 220 253 20,900 -900 Descending Edmonton Center
10:26AM 49.8500 -110.0167 270° West 220 253 20,100 -900 Descending Edmonton Center
10:27AM 49.8667 -110.1167 285° West 220 253 19,200 -900 Descending Edmonton Center
10:28AM 49.8833 -110.2000 287° West 210 242 18,300 -600 Descending Edmonton Center
10:29AM 49.8833 -110.2667 270° West 200 230 18,000 -180 Descending Edmonton Center
10:30AM 49.8833 -110.3833 270° West 200 230 18,000  Level Edmonton Center
10:31AM 49.9000 -110.4667 287° West 210 242 18,000  Level Edmonton Center
10:32AM 49.9167 -110.5667 285° West 210 242 18,000  Level Edmonton Center
10:33AM 49.9333 -110.6500 287° West 210 242 18,000  Level Edmonton Center
10:34AM 49.9333 -110.7500 270° West 220 253 18,000  Level Edmonton Center
10:35AM 49.9333 -110.8333 270° West 220 253 18,000  Level Edmonton Center
10:36AM 49.9667 -110.9333 297° West 220 253 18,000  Level Edmonton Center
10:37AM 49.9667 -111.0167 270° West 220 253 18,000  Level Edmonton Center
10:38AM 50.0000 -111.1000 302° West 220 253 18,000  Level Edmonton Center
10:39AM 50.0167 -111.2167 283° West 220 253 18,000  Level Edmonton Center
10:40AM 50.0500 -111.3000 302° West 220 253 18,000  Level Edmonton Center
10:46AM 50.1670 -111.7710 302° West 217 250 18,000  Level FlightAware
10:46AM 50.1840 -111.8580 287° West 217 250 18,000  Level FlightAware
10:47AM 50.1970 -111.9270 286° West 218 251 18,000  Level FlightAware
10:48AM 50.2120 -112.0020 287° West 218 251 18,000  Level FlightAware
10:49AM 50.2340 -112.0650 299° West 219 252 18,000 -240 Level FlightAware
10:49AM 50.2540 -112.1300 296° West 222 255 17,700 -660 Descending FlightAware
10:50AM 50.2750 -112.1940 297° West 219 252 17,000 -960 Descending FlightAware
10:51AM 50.2960 -112.2620 296° West 207 238 16,200 -1,260 Descending FlightAware
10:52AM 50.3160 -112.3240 297° West 205 236 15,200 -1,380 Descending FlightAware
10:52AM 50.3320 -112.3780 295° West 203 234 14,300 -1,380 Descending FlightAware
10:53AM 50.3490 -112.4330 296° West 204 235 13,400 -1,320 Descending FlightAware
10:54AM 50.3680 -112.4930 296° West 207 238 12,500 -1,260 Descending FlightAware
10:54AM 50.3850 -112.5470 296° West 208 239 11,700 -1,140 Descending FlightAware
10:55AM 50.3990 -112.5940 295° West 209 241 11,100 -480 Descending FlightAware
10:56AM 50.4100 -112.6310 295° West 204 235 11,000 -120 Descending FlightAware
10:56AM 50.4370 -112.7190 296° West 202 232 11,000  Level FlightAware
10:57AM 50.4530 -112.7720 295° West 209 241 11,000  Level FlightAware
10:58AM 50.4730 -112.8350 297° West 203 234 11,000  Level FlightAware
10:59AM 50.4890 -112.8880 295° West 196 226 11,000 -540 Level FlightAware
10:59AM 50.5070 -112.9470 296° West 209 241 10,300 -780 Descending FlightAware
11:00AM 50.5260 -113.0150 294° West 210 242 9,800 -960 Descending FlightAware
11:01AM 50.5420 -113.0610 299° West 193 222 9,000 -780 Descending FlightAware
11:01AM 50.5530 -113.1010 293° West 197 227 9,000  Level FlightAware
11:01AM 50.5580 -113.1140 301° West 199 229 9,000  Level FlightAware
11:02AM 50.5670 -113.1450 295° West 202 232 9,000  Level FlightAware
11:02AM 50.5790 -113.1860 295° West 202 232 9,000  Level FlightAware
11:03AM 50.5870 -113.2140 294° West 202 232 9,000  Level FlightAware
11:03AM 50.5950 -113.2400 296° West 202 232 9,000  Level FlightAware
11:04AM 50.6100 -113.2880 296° West 202 232 9,000  Level FlightAware
11:04AM 50.6200 -113.3210 296° West 198 228 9,000 -120 Level FlightAware
11:04AM 50.6350 -113.3570 303° West 199 229 8,900 -780 Descending FlightAware
11:05AM 50.6500 -113.3760 321° Northwest 206 237 8,400 -1,500 Descending FlightAware
11:05AM 50.6740 -113.4020 326° Northwest 214 246 7,700 -1,320 Descending FlightAware
11:06AM 50.6980 -113.4290 325° Northwest 195 224 7,100 -960 Descending FlightAware
11:06AM 50.7090 -113.4410 325° Northwest 184 212 7,000 -180 Descending FlightAware
11:07AM 50.7300 -113.4640 325° Northwest 180 207 7,000  Level FlightAware
11:07AM 50.7410 -113.4760 325° Northwest 184 212 7,000  Level FlightAware
11:07AM 50.7580 -113.4950 325° Northwest 176 203 7,000  Level FlightAware
11:08AM 50.7780 -113.5180 324° Northwest 180 207 7,000  Level FlightAware
11:08AM 50.7970 -113.5380 326° Northwest 197 227 7,000  Level FlightAware
11:08AM 50.8040 -113.5470 321° Northwest 199 229 7,000  Level FlightAware
11:09AM 50.8200 -113.5640 326° Northwest 203 234 7,000  Level FlightAware
11:09AM 50.8350 -113.5800 326° Northwest 198 228 7,000  Level FlightAware
11:09AM 50.8500 -113.5980 323° Northwest 198 228 7,000  Level FlightAware
11:10AM 50.8700 -113.6200 325° Northwest 197 227 7,000  Level FlightAware
11:10AM 50.8930 -113.6450 326° Northwest 199 229 7,000  Level FlightAware
11:11AM 50.9300 -113.6800 329° Northwest 176 203 7,000  Level FlightAware
11:12AM 50.9500 -113.6500 43° Northeast 157 181 7,000  Level FlightAware
11:12AM 50.9470 -113.6220 100° East 153 176 7,000  Level FlightAware
11:13AM 50.9360 -113.5950 123° Southeast 150 173 7,000  Level FlightAware
11:13AM 50.9290 -113.5920 165° South 161 185 7,000  Level FlightAware
11:13AM 50.9090 -113.6180 219° Southwest 172 198 7,000  Level FlightAware
11:14AM 50.9080 -113.6490 267° West 174 200 7,000 -120 Level FlightAware
11:14AM 50.9170 -113.6850 292° West 176 203 6,900 -240 Descending FlightAware
11:15AM 50.9280 -113.7140 301° West 172 198 6,800 -600 Descending FlightAware
11:15AM 50.9380 -113.7600 289° West 174 200 6,300 -1,080 Descending FlightAware
11:16AM 50.9460 -113.7980 288° West 173 199 5,600 -840 Descending FlightAware
11:16AM 50.9530 -113.8320 288° West 164 189 5,500 -180 Descending FlightAware
11:17AM 50.9550 -113.8440 285° West 163 188 5,500  Level FlightAware
11:17AM 50.9610 -113.8820 284° West 179 206 5,500  Level FlightAware
11:18AM 50.9680 -113.9190 287° West 176 203 5,500  Level FlightAware
11:18AM 50.9740 -113.9500 287° West 170 196 5,500  Level FlightAware
11:18AM 50.9890 -113.9780 310° West 162 186 5,500  Level FlightAware
11:19AM 51.0070 -114.0020 320° Northwest 166 191 5,500  Level FlightAware
11:19AM 51.0160 -114.0140 320° Northwest 165 190 5,500  Level FlightAware
11:20AM 51.0270 -114.0300 318° Northwest 160 184 5,500  Level FlightAware
11:20AM 51.0370 -114.0600 298° West 154 177 5,500  Level FlightAware
11:21AM 51.0440 -114.0790 300° West 152 175 5,500  Level FlightAware
11:21AM 51.0540 -114.1030 304° West 153 176 5,500  Level FlightAware
11:21AM 51.0650 -114.1320 301° West 155 178 5,500  Level FlightAware
11:22AM 51.0770 -114.1610 303° West 159 183 5,500  Level FlightAware
11:22AM 51.0860 -114.1860 300° West 158 182 5,500 -120 Level FlightAware
11:23AM 51.0970 -114.2150 301° West 137 158 5,400 -240 Descending FlightAware
11:23AM 51.1020 -114.2390 288° West 131 151 5,300 -300 Descending FlightAware
11:23AM 51.1040 -114.2530 283° West 130 150 5,200 -480 Descending FlightAware
11:24AM 51.1050 -114.2770 274° West 127 146 5,000 -540 Descending FlightAware
11:24AM 51.1050 -114.3040 270° West 127 146 4,700 -660 Descending FlightAware
11:25AM 51.1050 -114.3250 270° West 126 145 4,400 -720 Descending FlightAware
11:33AM 51.1000 -114.3667 155° Southeast  Level FlightAware Approximate
11:34AM 51.1031 -114.3744 155° Southeast  Level Estimated
11:35AM 51.1000 -114.3667 155° Southeast  Level FlightAware Approximate